Time;durP1;ratioP1;P1;durP2;ratioP2;P2;SDS_P1;SDS_P2;PMS_P1;PMS_P2;Temp;Humidity;BMP_temperature;BMP_pressure;BME280_temperature;BME280_humidity;BME280_pressure;Samples;Min_cycle;Max_cycle;Signal;HPM_P1;HPM_P2
2021/10/08 00:00:15;;;;;;;11.50;4.75;;;;;;;;;;5055622;28;20013;-89
2021/10/08 00:02:40;;;;;;;12.60;4.40;;;;;;;;;;5055305;28;20063;-88
2021/10/08 00:05:05;;;;;;;12.02;4.75;;;;;;;;;;5057991;28;20039;-89
2021/10/08 00:07:31;;;;;;;11.25;4.93;;;;;;;;;;5059620;28;20100;-89
2021/10/08 00:09:56;;;;;;;8.88;4.53;;;;;;;;;;5059426;28;20052;-89
2021/10/08 00:12:21;;;;;;;12.30;4.85;;;;;;;;;;5050741;28;20108;-89
2021/10/08 00:14:46;;;;;;;8.10;4.50;;;;;;;;;;5073563;28;20021;-89
2021/10/08 00:17:12;;;;;;;8.48;4.50;;;;;;;;;;5059582;28;20023;-89
2021/10/08 00:19:37;;;;;;;10.70;4.40;;;;;;;;;;5045391;28;20392;-88
2021/10/08 00:22:03;;;;;;;10.07;4.88;;;;;;;;;;5059220;28;20380;-88
2021/10/08 00:24:28;;;;;;;7.10;3.95;;;;;;;;;;5059421;28;20035;-88
2021/10/08 00:26:53;;;;;;;9.02;4.25;;;;;;;;;;5059382;28;20024;-89
2021/10/08 00:29:18;;;;;;;8.23;4.25;;;;;;;;;;5058585;28;20028;-89
2021/10/08 00:31:44;;;;;;;10.10;4.55;;;;;;;;;;5059173;28;20055;-89
2021/10/08 00:34:09;;;;;;;7.50;4.03;;;;;;;;;;5058991;28;20350;-89
2021/10/08 00:36:34;;;;;;;7.85;4.03;;;;;;;;;;5059282;28;20384;-89
2021/10/08 00:38:59;;;;;;;11.00;4.05;;;;;;;;;;5059063;28;20020;-88
2021/10/08 00:41:25;;;;;;;9.93;4.70;;;;;;;;;;5058926;28;20021;-89
2021/10/08 00:43:51;;;;;;;13.65;4.30;;;;;;;;;;5059036;28;20031;-89
2021/10/08 00:46:16;;;;;;;7.75;4.10;;;;;;;;;;5058762;28;20021;-89
2021/10/08 00:48:42;;;;;;;9.77;5.13;;;;;;;;;;5090977;28;20457;-88
2021/10/08 00:51:07;;;;;;;7.95;4.20;;;;;;;;;;5058788;28;20027;-88
2021/10/08 00:53:32;;;;;;;11.00;4.03;;;;;;;;;;5058549;28;20020;-88
2021/10/08 00:55:58;;;;;;;11.07;3.92;;;;;;;;;;5058747;28;20131;-89
2021/10/08 00:58:23;;;;;;;7.75;3.85;;;;;;;;;;5058437;28;20093;-88
2021/10/08 01:00:49;;;;;;;8.95;4.47;;;;;;;;;;5058548;28;20024;-89
2021/10/08 01:03:16;;;;;;;15.10;3.78;;;;;;;;;;5058392;28;20396;-89
2021/10/08 01:05:41;;;;;;;7.85;4.10;;;;;;;;;;5058607;28;20029;-88
2021/10/08 01:08:08;;;;;;;9.95;4.80;;;;;;;;;;5058190;28;20032;-89
2021/10/08 01:10:33;;;;;;;12.60;5.68;;;;;;;;;;5058421;28;20066;-89
2021/10/08 01:12:59;;;;;;;16.42;7.30;;;;;;;;;;5076386;28;20032;-88
2021/10/08 01:15:24;;;;;;;22.40;8.25;;;;;;;;;;5058193;28;20062;-88
2021/10/08 01:17:50;;;;;;;15.35;6.22;;;;;;;;;;5058168;28;20024;-88
2021/10/08 01:20:16;;;;;;;18.00;7.20;;;;;;;;;;5049294;28;20023;-89
2021/10/08 01:22:41;;;;;;;20.00;7.68;;;;;;;;;;5058257;28;20013;-89
2021/10/08 01:25:06;;;;;;;18.60;6.75;;;;;;;;;;5058271;28;20028;-89
2021/10/08 01:27:32;;;;;;;17.40;6.70;;;;;;;;;;5058055;28;20096;-89
2021/10/08 01:29:58;;;;;;;21.45;7.25;;;;;;;;;;5058144;28;20059;-89
2021/10/08 01:32:23;;;;;;;17.45;7.35;;;;;;;;;;5058042;28;20017;-89
2021/10/08 01:34:49;;;;;;;18.38;7.25;;;;;;;;;;5058219;28;20028;-90
2021/10/08 01:37:15;;;;;;;17.95;6.95;;;;;;;;;;5057978;28;20050;-89
2021/10/08 01:39:40;;;;;;;17.63;6.78;;;;;;;;;;5057708;28;20016;-89
2021/10/08 01:42:06;;;;;;;18.40;7.00;;;;;;;;;;5058135;28;20033;-89
2021/10/08 01:44:31;;;;;;;16.40;7.05;;;;;;;;;;5057958;28;20024;-89
2021/10/08 01:46:57;;;;;;;16.38;6.88;;;;;;;;;;5057857;28;20116;-89
2021/10/08 01:49:22;;;;;;;15.20;6.82;;;;;;;;;;5057878;28;20021;-89
2021/10/08 01:51:47;;;;;;;13.73;6.28;;;;;;;;;;5057682;28;20020;-88
2021/10/08 01:54:12;;;;;;;20.50;7.07;;;;;;;;;;5057646;28;20050;-89
2021/10/08 01:56:44;;;;;;;15.65;5.93;;;;;;;;;;5057728;28;20059;-89
2021/10/08 01:59:09;;;;;;;14.10;5.87;;;;;;;;;;5057474;28;20553;-89
2021/10/08 02:01:34;;;;;;;14.32;5.80;;;;;;;;;;5057774;28;20020;-89
2021/10/08 02:03:59;;;;;;;14.07;5.95;;;;;;;;;;5057591;28;20407;-89
2021/10/08 02:06:24;;;;;;;17.95;5.90;;;;;;;;;;5057491;28;20020;-89
2021/10/08 02:08:50;;;;;;;11.68;5.63;;;;;;;;;;5057348;28;20036;-89
2021/10/08 02:11:15;;;;;;;14.02;5.95;;;;;;;;;;5057371;28;20059;-89
2021/10/08 02:13:40;;;;;;;12.68;5.03;;;;;;;;;;5057455;28;20008;-89
2021/10/08 02:16:05;;;;;;;17.38;6.78;;;;;;;;;;5057435;28;20103;-89
2021/10/08 02:18:31;;;;;;;21.13;7.13;;;;;;;;;;5056989;28;20078;-89
2021/10/08 02:20:56;;;;;;;20.90;7.43;;;;;;;;;;5057150;28;20066;-89
2021/10/08 02:23:21;;;;;;;19.55;7.90;;;;;;;;;;5057229;28;20472;-89
2021/10/08 02:25:46;;;;;;;23.30;7.43;;;;;;;;;;5052037;28;20024;-89
2021/10/08 02:28:12;;;;;;;18.92;7.40;;;;;;;;;;5047756;28;20074;-89
2021/10/08 02:30:37;;;;;;;22.25;7.03;;;;;;;;;;5057072;28;20016;-89
2021/10/08 02:33:02;;;;;;;23.95;7.55;;;;;;;;;;5074951;28;20013;-89
2021/10/08 02:35:27;;;;;;;17.38;7.07;;;;;;;;;;5074797;28;20031;-89
2021/10/08 02:37:53;;;;;;;17.20;6.47;;;;;;;;;;5056849;28;20009;-89
2021/10/08 02:40:18;;;;;;;18.27;7.65;;;;;;;;;;5070395;28;20034;-89
2021/10/08 02:42:44;;;;;;;14.70;7.03;;;;;;;;;;5056723;28;20097;-89
2021/10/08 02:45:09;;;;;;;17.58;8.05;;;;;;;;;;5056773;28;20036;-89
2021/10/08 02:47:34;;;;;;;15.73;7.40;;;;;;;;;;5056925;28;20177;-89
2021/10/08 02:50:00;;;;;;;19.30;8.07;;;;;;;;;;5073926;28;20060;-89
2021/10/08 02:52:25;;;;;;;14.55;6.88;;;;;;;;;;5056342;28;20025;-89
2021/10/08 02:54:50;;;;;;;16.10;7.18;;;;;;;;;;5056725;28;20016;-89
2021/10/08 02:57:15;;;;;;;14.10;7.20;;;;;;;;;;5056519;28;20383;-89
2021/10/08 02:59:41;;;;;;;16.17;7.43;;;;;;;;;;5056423;28;20043;-89
2021/10/08 03:02:06;;;;;;;14.40;7.40;;;;;;;;;;5056587;28;20112;-89
2021/10/08 03:04:31;;;;;;;17.67;8.52;;;;;;;;;;5059953;28;20044;-89
2021/10/08 03:06:57;;;;;;;16.15;8.13;;;;;;;;;;5056441;28;20464;-89
2021/10/08 03:09:22;;;;;;;16.05;7.57;;;;;;;;;;5056236;28;20032;-89
2021/10/08 03:11:47;;;;;;;16.40;7.70;;;;;;;;;;5056377;28;20077;-89
2021/10/08 03:14:13;;;;;;;17.42;7.80;;;;;;;;;;5056345;28;20115;-89
2021/10/08 03:16:38;;;;;;;17.50;7.95;;;;;;;;;;5055948;28;20027;-89
2021/10/08 03:19:03;;;;;;;15.32;7.43;;;;;;;;;;5056213;28;20055;-89
2021/10/08 03:21:29;;;;;;;14.68;7.25;;;;;;;;;;5056217;28;20039;-89
2021/10/08 03:23:54;;;;;;;14.43;7.20;;;;;;;;;;5056217;28;20376;-89
2021/10/08 03:26:19;;;;;;;12.48;6.80;;;;;;;;;;5056232;28;20067;-89
2021/10/08 03:28:45;;;;;;;14.73;7.38;;;;;;;;;;5055762;28;20032;-89
2021/10/08 03:31:11;;;;;;;16.23;7.90;;;;;;;;;;5074006;28;20075;-89
2021/10/08 03:33:36;;;;;;;14.50;7.47;;;;;;;;;;5056161;28;20040;-89
2021/10/08 03:36:01;;;;;;;12.10;6.75;;;;;;;;;;5055892;28;20393;-89
2021/10/08 03:38:30;;;;;;;13.13;7.30;;;;;;;;;;5055347;28;20091;-89
2021/10/08 03:41:08;;;;;;;13.20;6.60;;;;;;;;;;5055776;28;20009;-89
2021/10/08 03:43:34;;;;;;;18.13;6.53;;;;;;;;;;5055927;28;20055;-89
2021/10/08 03:46:01;;;;;;;10.93;6.53;;;;;;;;;;5055792;28;20016;-89
2021/10/08 03:51:01;;;;;;;10.40;7.00;;;;;;;;;;5074016;28;20025;-89
2021/10/08 03:53:27;;;;;;;10.32;6.55;;;;;;;;;;5055967;28;20021;-89
2021/10/08 03:55:55;;;;;;;11.75;7.03;;;;;;;;;;5089348;28;20017;-89
2021/10/08 03:58:20;;;;;;;14.43;6.82;;;;;;;;;;5055843;28;20020;-89
2021/10/08 04:00:45;;;;;;;12.07;7.28;;;;;;;;;;5055724;28;20023;-89
2021/10/08 04:03:10;;;;;;;11.63;6.97;;;;;;;;;;5068409;28;20051;-89
2021/10/08 04:05:36;;;;;;;9.82;6.43;;;;;;;;;;5046890;28;20032;-89
2021/10/08 04:08:01;;;;;;;9.95;6.43;;;;;;;;;;5055563;28;20023;-89
2021/10/08 04:10:26;;;;;;;11.70;6.35;;;;;;;;;;5055619;28;20063;-89
2021/10/08 04:12:51;;;;;;;9.20;6.15;;;;;;;;;;5073515;28;20049;-89
2021/10/08 04:15:17;;;;;;;11.63;6.88;;;;;;;;;;5055726;28;20023;-89
2021/10/08 04:17:42;;;;;;;12.68;6.40;;;;;;;;;;5055617;28;20464;-89
2021/10/08 04:20:07;;;;;;;10.35;6.30;;;;;;;;;;5055317;28;20070;-89
2021/10/08 04:22:33;;;;;;;11.40;6.45;;;;;;;;;;5055693;28;20032;-89
2021/10/08 04:24:58;;;;;;;12.43;6.55;;;;;;;;;;5055657;28;20024;-89
2021/10/08 04:27:23;;;;;;;11.52;7.18;;;;;;;;;;5055399;28;20384;-89
2021/10/08 04:29:48;;;;;;;13.07;8.07;;;;;;;;;;5055425;28;20055;-89
2021/10/08 04:32:13;;;;;;;12.90;6.57;;;;;;;;;;5052976;28;20016;-89
2021/10/08 04:34:39;;;;;;;12.63;7.15;;;;;;;;;;5043819;28;20099;-89
2021/10/08 04:37:04;;;;;;;12.10;7.20;;;;;;;;;;5055154;28;20112;-89
2021/10/08 04:39:29;;;;;;;12.77;7.65;;;;;;;;;;5055271;28;20017;-89
2021/10/08 04:41:54;;;;;;;15.25;8.50;;;;;;;;;;5055541;28;20024;-90
2021/10/08 04:44:19;;;;;;;15.55;8.43;;;;;;;;;;5054728;28;20035;-89
2021/10/08 04:46:45;;;;;;;13.80;8.60;;;;;;;;;;5055479;28;20028;-89
2021/10/08 04:49:10;;;;;;;16.13;7.68;;;;;;;;;;5055020;28;20025;-89
2021/10/08 04:51:35;;;;;;;13.20;7.65;;;;;;;;;;5058384;28;20017;-89
2021/10/08 04:54:01;;;;;;;13.50;7.97;;;;;;;;;;5058988;28;20024;-89
2021/10/08 04:56:26;;;;;;;13.75;7.85;;;;;;;;;;5058668;28;20024;-89
2021/10/08 04:58:51;;;;;;;15.95;7.72;;;;;;;;;;5059030;28;20021;-89
2021/10/08 05:01:17;;;;;;;16.92;8.15;;;;;;;;;;5055047;28;20032;-89
2021/10/08 05:03:42;;;;;;;14.55;8.55;;;;;;;;;;5048346;28;20478;-89
2021/10/08 05:06:07;;;;;;;16.15;8.82;;;;;;;;;;5076459;28;20028;-89
2021/10/08 05:08:32;;;;;;;16.90;8.35;;;;;;;;;;5076983;28;20490;-89
2021/10/08 05:10:58;;;;;;;16.90;8.55;;;;;;;;;;5058780;28;20415;-89
2021/10/08 05:13:23;;;;;;;16.98;8.68;;;;;;;;;;5058522;28;20410;-89
2021/10/08 05:15:48;;;;;;;15.13;8.52;;;;;;;;;;5058533;28;20025;-89
2021/10/08 05:18:13;;;;;;;16.30;8.65;;;;;;;;;;5058383;28;20468;-89
2021/10/08 05:20:39;;;;;;;15.80;8.35;;;;;;;;;;5058309;28;20031;-89
2021/10/08 05:23:04;;;;;;;19.98;9.23;;;;;;;;;;5076235;28;20096;-89
2021/10/08 05:25:29;;;;;;;15.80;8.48;;;;;;;;;;5058180;28;20488;-89
2021/10/08 05:27:55;;;;;;;19.63;9.57;;;;;;;;;;5058293;28;20008;-89
2021/10/08 05:30:20;;;;;;;18.67;9.15;;;;;;;;;;5058159;28;20430;-89
2021/10/08 05:32:45;;;;;;;17.58;8.95;;;;;;;;;;5058197;28;20012;-89
2021/10/08 05:35:11;;;;;;;15.90;8.80;;;;;;;;;;5058141;28;20025;-89
2021/10/08 05:37:36;;;;;;;18.42;8.43;;;;;;;;;;5058097;28;20020;-89
2021/10/08 05:40:02;;;;;;;16.05;8.50;;;;;;;;;;5058180;28;20070;-89
2021/10/08 05:42:27;;;;;;;20.58;8.20;;;;;;;;;;5058089;28;20024;-89
2021/10/08 05:44:53;;;;;;;17.20;8.55;;;;;;;;;;5058052;28;20021;-89
2021/10/08 05:47:18;;;;;;;13.73;8.13;;;;;;;;;;5057885;28;20108;-89
2021/10/08 05:49:43;;;;;;;13.98;8.60;;;;;;;;;;5057768;28;20384;-89
2021/10/08 05:52:09;;;;;;;15.57;7.38;;;;;;;;;;5058017;28;20020;-89
2021/10/08 05:54:34;;;;;;;22.10;8.88;;;;;;;;;;5053538;28;20015;-89
2021/10/08 05:56:59;;;;;;;19.33;8.73;;;;;;;;;;5048094;28;20019;-89
2021/10/08 05:59:24;;;;;;;21.45;9.75;;;;;;;;;;5075509;28;20028;-89
2021/10/08 06:01:49;;;;;;;19.73;9.38;;;;;;;;;;5056539;28;20040;-89
2021/10/08 06:04:15;;;;;;;23.80;9.38;;;;;;;;;;5057366;28;20028;-89
2021/10/08 06:06:40;;;;;;;19.73;10.45;;;;;;;;;;5055760;28;20467;-89
2021/10/08 06:09:05;;;;;;;17.85;8.70;;;;;;;;;;5091410;28;20161;-89
2021/10/08 06:11:31;;;;;;;18.92;9.07;;;;;;;;;;5057185;28;20016;-89
2021/10/08 06:13:57;;;;;;;17.08;9.10;;;;;;;;;;5059014;28;20024;-89
2021/10/08 06:16:23;;;;;;;18.77;8.32;;;;;;;;;;5057422;28;20024;-90
2021/10/08 06:18:48;;;;;;;19.63;8.95;;;;;;;;;;5059473;28;20104;-90
2021/10/08 06:21:13;;;;;;;15.80;8.38;;;;;;;;;;5061141;28;20027;-90
2021/10/08 06:23:39;;;;;;;14.80;8.23;;;;;;;;;;5061622;28;20092;-89
2021/10/08 06:26:04;;;;;;;14.32;8.50;;;;;;;;;;5057356;28;20027;-89
2021/10/08 06:28:29;;;;;;;13.95;8.43;;;;;;;;;;5056987;28;20120;-89
2021/10/08 06:30:55;;;;;;;15.65;8.68;;;;;;;;;;5057207;28;20040;-89
2021/10/08 06:33:20;;;;;;;16.23;8.82;;;;;;;;;;5057165;28;20131;-89
2021/10/08 06:35:46;;;;;;;14.07;7.50;;;;;;;;;;5068914;28;20040;-89
2021/10/08 06:38:11;;;;;;;13.35;8.18;;;;;;;;;;5057024;28;20017;-89
2021/10/08 06:40:37;;;;;;;14.32;8.60;;;;;;;;;;5057014;28;20103;-90
2021/10/08 06:43:04;;;;;;;18.98;8.95;;;;;;;;;;5056939;28;20013;-89
2021/10/08 06:45:29;;;;;;;15.27;8.77;;;;;;;;;;5060101;28;20153;-90
2021/10/08 06:47:55;;;;;;;12.55;7.57;;;;;;;;;;5057121;28;20050;-90
2021/10/08 06:50:20;;;;;;;16.75;9.32;;;;;;;;;;5074936;28;20024;-89
2021/10/08 06:52:45;;;;;;;16.48;8.88;;;;;;;;;;5056863;28;20097;-90
2021/10/08 06:55:10;;;;;;;20.45;9.50;;;;;;;;;;5057231;28;20662;-90
2021/10/08 06:57:35;;;;;;;17.58;9.93;;;;;;;;;;5056486;28;20476;-89
2021/10/08 07:00:01;;;;;;;15.43;8.32;;;;;;;;;;5059428;28;20476;-89
2021/10/08 07:02:26;;;;;;;21.23;9.07;;;;;;;;;;5068986;28;20061;-89
2021/10/08 07:04:51;;;;;;;17.40;9.25;;;;;;;;;;5063009;28;20038;-89
2021/10/08 07:07:17;;;;;;;15.93;9.07;;;;;;;;;;5059697;28;20036;-89
2021/10/08 07:09:43;;;;;;;18.15;9.52;;;;;;;;;;5056499;28;20103;-89
2021/10/08 07:12:08;;;;;;;24.30;9.65;;;;;;;;;;5076209;28;20020;-89
2021/10/08 07:14:33;;;;;;;16.60;8.77;;;;;;;;;;5060901;28;20104;-89
2021/10/08 07:16:59;;;;;;;17.92;9.38;;;;;;;;;;5074283;28;20464;-90
2021/10/08 07:19:24;;;;;;;18.90;10.60;;;;;;;;;;5056316;28;20016;-89
2021/10/08 07:21:50;;;;;;;23.63;11.25;;;;;;;;;;5056038;28;20016;-90
2021/10/08 07:24:15;;;;;;;20.25;10.25;;;;;;;;;;5089954;28;20028;-90
2021/10/08 07:26:40;;;;;;;28.67;11.65;;;;;;;;;;5094890;28;20036;-90
2021/10/08 07:29:06;;;;;;;20.65;10.55;;;;;;;;;;5089746;28;20099;-90
2021/10/08 07:31:31;;;;;;;19.30;10.90;;;;;;;;;;5088324;28;20020;-90
2021/10/08 07:33:56;;;;;;;19.98;10.48;;;;;;;;;;5089557;28;20024;-90
2021/10/08 07:36:21;;;;;;;24.73;12.57;;;;;;;;;;5056280;28;20021;-90
2021/10/08 07:38:47;;;;;;;25.40;12.40;;;;;;;;;;5056071;28;20035;-90
2021/10/08 07:41:12;;;;;;;23.33;12.05;;;;;;;;;;5065206;28;20035;-90
2021/10/08 07:43:40;;;;;;;23.70;11.88;;;;;;;;;;5063732;28;20020;-90
2021/10/08 07:46:05;;;;;;;29.70;13.15;;;;;;;;;;5055893;28;20074;-90
2021/10/08 07:48:31;;;;;;;30.52;13.32;;;;;;;;;;5089571;28;20025;-90
2021/10/08 07:50:56;;;;;;;29.45;13.82;;;;;;;;;;5055972;28;20021;-90
2021/10/08 07:53:21;;;;;;;36.78;14.35;;;;;;;;;;5055962;28;20472;-90
2021/10/08 07:55:46;;;;;;;31.15;13.15;;;;;;;;;;5055776;28;20021;-90
2021/10/08 07:58:12;;;;;;;33.53;14.45;;;;;;;;;;5055885;28;20380;-90
2021/10/08 08:00:37;;;;;;;31.75;14.07;;;;;;;;;;5055806;28;20016;-90
2021/10/08 08:03:02;;;;;;;33.45;15.63;;;;;;;;;;5075192;28;20020;-90
2021/10/08 08:05:27;;;;;;;31.17;13.93;;;;;;;;;;5073752;28;20074;-90
2021/10/08 08:07:52;;;;;;;33.30;14.45;;;;;;;;;;5089412;28;20020;-90
2021/10/08 08:10:18;;;;;;;37.38;15.35;;;;;;;;;;5055818;28;20123;-90
2021/10/08 08:12:43;;;;;;;36.50;16.42;;;;;;;;;;5090928;28;20013;-90
2021/10/08 08:15:09;;;;;;;33.90;14.48;;;;;;;;;;5055890;28;20221;-90
2021/10/08 08:17:34;;;;;;;40.97;17.40;;;;;;;;;;5089405;28;20111;-90
2021/10/08 08:19:59;;;;;;;34.00;15.45;;;;;;;;;;5073934;28;20020;-89
2021/10/08 08:22:24;;;;;;;34.15;16.42;;;;;;;;;;5089179;28;20020;-90
2021/10/08 08:24:49;;;;;;;39.65;17.52;;;;;;;;;;5055864;28;20502;-90
2021/10/08 08:27:15;;;;;;;40.70;17.60;;;;;;;;;;5088203;28;20104;-90
2021/10/08 08:29:40;;;;;;;45.20;19.23;;;;;;;;;;5054337;28;20181;-90
2021/10/08 08:32:06;;;;;;;42.13;18.88;;;;;;;;;;5064139;28;20013;-89
2021/10/08 08:34:31;;;;;;;44.47;19.67;;;;;;;;;;5085756;28;20017;-89
2021/10/08 08:36:56;;;;;;;45.28;20.25;;;;;;;;;;5052685;28;20020;-90
2021/10/08 08:39:22;;;;;;;47.97;20.98;;;;;;;;;;5092862;28;20058;-90
2021/10/08 08:41:48;;;;;;;49.63;20.92;;;;;;;;;;5059335;28;20428;-89
2021/10/08 08:44:13;;;;;;;46.00;18.67;;;;;;;;;;5059709;28;20028;-90
2021/10/08 08:46:39;;;;;;;49.92;19.70;;;;;;;;;;5092815;28;20036;-90
2021/10/08 08:49:04;;;;;;;49.22;19.15;;;;;;;;;;5092484;28;20111;-90
2021/10/08 08:51:31;;;;;;;50.78;21.02;;;;;;;;;;5092680;28;20021;-90
2021/10/08 08:53:57;;;;;;;59.60;21.58;;;;;;;;;;5058967;28;20020;-90
2021/10/08 08:56:23;;;;;;;52.80;21.05;;;;;;;;;;5076868;28;20008;-90
2021/10/08 08:58:56;;;;;;;57.08;23.63;;;;;;;;;;5076713;28;20061;-89
2021/10/08 09:01:22;;;;;;;58.45;22.42;;;;;;;;;;5076729;28;20024;-89
2021/10/08 09:04:06;;;;;;;58.00;23.10;;;;;;;;;;5076567;28;20025;-89
2021/10/08 09:06:38;;;;;;;57.58;23.67;;;;;;;;;;5058756;28;20070;-89
2021/10/08 09:09:04;;;;;;;;;;;;;;;;;;5093095;28;20151;-90
2021/10/08 09:11:36;;;;;;;67.72;22.60;;;;;;;;;;5055339;28;19962;-89
2021/10/08 09:14:22;;;;;;;65.72;23.80;;;;;;;;;;5049384;28;20265;-89
2021/10/08 09:17:06;;;;;;;60.58;22.45;;;;;;;;;;5076279;28;20013;-90
2021/10/08 09:19:50;;;;;;;64.38;22.45;;;;;;;;;;5058606;28;20476;-89
2021/10/08 09:22:20;;;;;;;51.88;19.63;;;;;;;;;;5073429;28;20076;-90
2021/10/08 09:24:45;;;;;;;55.88;22.38;;;;;;;;;;5058336;28;20021;-89
2021/10/08 09:27:11;;;;;;;42.35;17.05;;;;;;;;;;5076031;28;20028;-90
2021/10/08 09:29:36;;;;;;;46.05;18.40;;;;;;;;;;5091906;28;20024;-90
2021/10/08 09:32:02;;;;;;;50.00;19.65;;;;;;;;;;5091041;28;20036;-88
2021/10/08 09:34:27;;;;;;;49.95;19.48;;;;;;;;;;5088696;28;20071;-89
2021/10/08 09:36:59;;;;;;;49.30;20.52;;;;;;;;;;5065302;28;20048;-90
2021/10/08 09:39:37;;;;;;;57.10;21.98;;;;;;;;;;5091679;28;20021;-89
2021/10/08 09:42:11;;;;;;;58.63;23.48;;;;;;;;;;5091660;28;20025;-89
2021/10/08 09:44:37;;;;;;;54.65;22.25;;;;;;;;;;5071870;28;20048;-89
2021/10/08 09:47:06;;;;;;;53.53;23.67;;;;;;;;;;5091454;28;20088;-89
2021/10/08 09:49:32;;;;;;;54.58;22.38;;;;;;;;;;5057628;28;20047;-89
2021/10/08 09:51:57;;;;;;;50.50;22.00;;;;;;;;;;5083519;28;20469;-89
2021/10/08 09:54:22;;;;;;;57.40;23.63;;;;;;;;;;5054444;28;20020;-89
2021/10/08 09:56:57;;;;;;;62.47;23.83;;;;;;;;;;5057243;28;20016;-90
2021/10/08 09:59:36;;;;;;;56.40;23.13;;;;;;;;;;5092668;28;20073;-89
2021/10/08 10:02:11;;;;;;;47.92;21.60;;;;;;;;;;5053354;28;20028;-89
2021/10/08 10:05:15;;;;;;;48.15;21.65;;;;;;;;;;5054946;28;20475;-90
2021/10/08 10:07:40;;;;;;;48.35;20.67;;;;;;;;;;5001935;28;20041;-90
2021/10/08 10:10:05;;;;;;;53.08;22.88;;;;;;;;;;4978066;28;20041;-90
2021/10/08 10:12:32;;;;;;;49.15;21.73;;;;;;;;;;5011173;28;20028;-89
2021/10/08 10:14:57;;;;;;;39.42;17.70;;;;;;;;;;5056973;28;20016;-90
2021/10/08 10:17:22;;;;;;;41.72;16.70;;;;;;;;;;5086011;28;20091;-89
2021/10/08 10:19:48;;;;;;;36.05;16.08;;;;;;;;;;5082796;28;20391;-90
2021/10/08 10:22:18;;;;;;;43.80;18.65;;;;;;;;;;5075483;28;20012;-91
2021/10/08 10:24:44;;;;;;;44.30;18.85;;;;;;;;;;5057808;28;20118;-90
2021/10/08 10:27:10;;;;;;;42.42;18.20;;;;;;;;;;5057252;28;20031;-90
2021/10/08 10:29:37;;;;;;;38.63;15.60;;;;;;;;;;5091048;28;20021;-91
2021/10/08 10:32:03;;;;;;;39.78;17.13;;;;;;;;;;5057224;28;20012;-91
2021/10/08 10:34:32;;;;;;;39.55;15.77;;;;;;;;;;5070636;28;20016;-90
2021/10/08 10:36:57;;;;;;;32.45;14.10;;;;;;;;;;5090920;28;20012;-91
2021/10/08 10:39:22;;;;;;;29.08;14.93;;;;;;;;;;5053479;28;20027;-90
2021/10/08 10:42:13;;;;;;;27.23;13.50;;;;;;;;;;5056887;28;20024;-90
2021/10/08 10:44:59;;;;;;;33.70;14.65;;;;;;;;;;5051906;28;20119;-91
2021/10/08 10:47:34;;;;;;;30.27;15.27;;;;;;;;;;5064664;28;20162;-90
2021/10/08 10:50:24;;;;;;;30.25;13.43;;;;;;;;;;5085773;28;20066;-90
2021/10/08 10:52:58;;;;;;;24.45;12.88;;;;;;;;;;5067420;28;20024;-90
2021/10/08 10:55:24;;;;;;;28.20;13.00;;;;;;;;;;5062119;28;20024;-90
2021/10/08 10:57:55;;;;;;;25.17;12.45;;;;;;;;;;5090831;28;20017;-90
2021/10/08 11:00:20;;;;;;;28.35;12.45;;;;;;;;;;5064583;28;20023;-90
2021/10/08 11:02:46;;;;;;;32.42;13.50;;;;;;;;;;5056833;28;20024;-90
2021/10/08 11:05:19;;;;;;;26.05;12.30;;;;;;;;;;5067933;28;20067;-90
2021/10/08 11:08:04;;;;;;;23.33;11.85;;;;;;;;;;5085616;28;20020;-90
2021/10/08 11:10:29;;;;;;;21.08;11.48;;;;;;;;;;5074441;28;20220;-90
2021/10/08 11:13:14;;;;;;;23.75;11.15;;;;;;;;;;5090062;28;20460;-90
2021/10/08 11:15:39;;;;;;;23.50;11.93;;;;;;;;;;5059708;28;20365;-90
2021/10/08 11:18:05;;;;;;;23.05;10.88;;;;;;;;;;5075520;28;20107;-90
2021/10/08 11:20:43;;;;;;;22.63;10.13;;;;;;;;;;5074134;28;20017;-89
2021/10/08 11:23:20;;;;;;;22.42;10.85;;;;;;;;;;5056611;28;20115;-90
2021/10/08 11:25:50;;;;;;;23.25;11.48;;;;;;;;;;5087682;28;20479;-89
2021/10/08 11:28:15;;;;;;;19.88;9.02;;;;;;;;;;5087462;28;20036;-90
2021/10/08 11:30:40;;;;;;;24.60;9.45;;;;;;;;;;5082398;28;20399;-90
2021/10/08 11:33:06;;;;;;;20.95;9.57;;;;;;;;;;5056254;28;20028;-91
2021/10/08 11:35:32;;;;;;;19.55;9.07;;;;;;;;;;5044878;28;20021;-89
2021/10/08 11:37:59;;;;;;;21.63;10.15;;;;;;;;;;5056008;28;20021;-90
2021/10/08 11:40:32;;;;;;;21.75;10.43;;;;;;;;;;5071019;28;20028;-90
2021/10/08 11:43:10;;;;;;;18.40;9.63;;;;;;;;;;5077934;28;20480;-90
2021/10/08 11:45:41;;;;;;;17.90;8.23;;;;;;;;;;5055935;28;20024;-90
2021/10/08 11:48:16;;;;;;;13.57;7.53;;;;;;;;;;5073355;28;20012;-89
2021/10/08 11:50:46;;;;;;;11.25;5.75;;;;;;;;;;5054699;28;20028;-90
2021/10/08 11:53:11;;;;;;;12.75;6.65;;;;;;;;;;5042830;28;20021;-90
2021/10/08 11:55:39;;;;;;;14.48;6.05;;;;;;;;;;5056082;28;20365;-90
2021/10/08 11:58:07;;;;;;;18.38;6.60;;;;;;;;;;5055590;28;20028;-90
2021/10/08 12:00:35;;;;;;;11.23;5.70;;;;;;;;;;5060898;28;20058;-90
2021/10/08 12:03:10;;;;;;;18.17;7.35;;;;;;;;;;5066440;28;20024;-90
2021/10/08 12:05:50;;;;;;;12.30;6.88;;;;;;;;;;5077702;28;20555;-90
2021/10/08 12:08:17;;;;;;;10.80;5.78;;;;;;;;;;5059891;28;20016;-89
2021/10/08 12:10:57;;;;;;;12.32;5.13;;;;;;;;;;5060029;28;20025;-89
2021/10/08 12:13:43;;;;;;;11.32;5.40;;;;;;;;;;5056973;28;20048;-90
2021/10/08 12:16:09;;;;;;;12.35;5.85;;;;;;;;;;5048352;28;20393;-90
2021/10/08 12:18:35;;;;;;;13.38;5.70;;;;;;;;;;5056988;28;20016;-89
2021/10/08 12:21:07;;;;;;;11.43;5.88;;;;;;;;;;5077291;28;20032;-89
2021/10/08 12:23:33;;;;;;;13.75;5.85;;;;;;;;;;5059302;28;20021;-89
2021/10/08 12:25:58;;;;;;;10.43;5.25;;;;;;;;;;5093275;28;20536;-90
2021/10/08 12:28:24;;;;;;;10.70;5.68;;;;;;;;;;5077412;28;20021;-90
2021/10/08 12:30:49;;;;;;;12.77;6.07;;;;;;;;;;5044512;28;20031;-90
2021/10/08 12:33:22;;;;;;;12.68;6.40;;;;;;;;;;5077352;28;20016;-90
2021/10/08 12:36:07;;;;;;;14.93;6.60;;;;;;;;;;5059340;28;20008;-90
2021/10/08 12:38:51;;;;;;;16.88;6.68;;;;;;;;;;5059121;28;20415;-90
2021/10/08 12:41:20;;;;;;;13.75;5.50;;;;;;;;;;5079609;28;20021;-90
2021/10/08 12:43:45;;;;;;;12.95;5.50;;;;;;;;;;5063891;28;20017;-90
2021/10/08 12:46:20;;;;;;;14.25;6.32;;;;;;;;;;5058291;28;20028;-90
2021/10/08 12:48:56;;;;;;;10.85;4.20;;;;;;;;;;5059207;28;20035;-90
2021/10/08 12:51:21;;;;;;;12.15;5.40;;;;;;;;;;5059127;28;20468;-90
2021/10/08 12:53:46;;;;;;;13.60;5.80;;;;;;;;;;5059172;28;20028;-90
2021/10/08 12:56:18;;;;;;;13.38;5.50;;;;;;;;;;5058845;28;20009;-89
2021/10/08 12:58:51;;;;;;;15.32;6.13;;;;;;;;;;5058791;28;20361;-90
2021/10/08 13:01:16;;;;;;;13.70;5.82;;;;;;;;;;5076430;28;20013;-89
2021/10/08 13:03:43;;;;;;;13.98;5.03;;;;;;;;;;5076701;28;20452;-89
2021/10/08 13:06:10;;;;;;;10.30;4.15;;;;;;;;;;5058613;28;20032;-90
2021/10/08 13:08:37;;;;;;;8.23;4.13;;;;;;;;;;5058616;28;20040;-90
2021/10/08 13:11:09;;;;;;;13.93;5.35;;;;;;;;;;5058561;28;20020;-90
2021/10/08 13:13:34;;;;;;;;;;;;;;;;;;5052341;28;20009;-90
2021/10/08 13:16:00;;;;;;;9.93;5.10;;;;;;;;;;5075406;28;19938;-90
2021/10/08 13:18:45;;;;;;;10.52;4.70;;;;;;;;;;5057247;28;20666;-90
2021/10/08 13:21:11;;;;;;;8.32;3.30;;;;;;;;;;5058380;28;20555;-89
2021/10/08 13:23:36;;;;;;;10.38;4.35;;;;;;;;;;5058340;28;20017;-90
2021/10/08 13:26:02;;;;;;;8.18;3.28;;;;;;;;;;5058458;28;20517;-89
2021/10/08 13:28:27;;;;;;;9.95;4.00;;;;;;;;;;5058282;28;20013;-89
2021/10/08 13:30:54;;;;;;;12.60;5.25;;;;;;;;;;5058418;28;20013;-89
2021/10/08 13:33:21;;;;;;;14.13;5.38;;;;;;;;;;5058445;28;20025;-89
2021/10/08 13:35:51;;;;;;;9.63;4.60;;;;;;;;;;5057826;28;20086;-90
2021/10/08 13:38:16;;;;;;;7.07;3.97;;;;;;;;;;5058202;28;20024;-90
2021/10/08 13:40:42;;;;;;;6.63;3.60;;;;;;;;;;5058048;28;20025;-90
2021/10/08 13:43:07;;;;;;;14.88;4.13;;;;;;;;;;5058222;28;20420;-90
2021/10/08 13:45:32;;;;;;;10.23;4.60;;;;;;;;;;5046254;28;20119;-90
2021/10/08 13:47:57;;;;;;;11.10;4.95;;;;;;;;;;5057837;28;20099;-89
2021/10/08 13:50:23;;;;;;;8.57;4.53;;;;;;;;;;5057696;28;20027;-89
2021/10/08 13:52:48;;;;;;;9.75;4.57;;;;;;;;;;5057875;28;20375;-89
2021/10/08 13:55:14;;;;;;;13.40;4.90;;;;;;;;;;5057758;28;20091;-89
2021/10/08 13:57:39;;;;;;;13.10;5.65;;;;;;;;;;5057585;28;20028;-89
2021/10/08 14:00:05;;;;;;;10.65;4.82;;;;;;;;;;5057779;28;20024;-90
2021/10/08 14:02:36;;;;;;;14.85;5.30;;;;;;;;;;5057680;28;20020;-89
2021/10/08 14:05:16;;;;;;;10.80;4.70;;;;;;;;;;5057558;28;20029;-89
2021/10/08 14:08:45;;;;;;;11.27;5.70;;;;;;;;;;5057356;28;20024;-89
2021/10/08 14:10:36;;;;;;;12.57;5.60;;;;;;;;;;5061814;28;20492;-90
2021/10/08 14:13:01;;;;;;;13.18;5.35;;;;;;;;;;5057341;28;20020;-89
2021/10/08 14:15:27;;;;;;;12.90;5.60;;;;;;;;;;5057163;28;20032;-89
2021/10/08 14:17:53;;;;;;;13.07;6.68;;;;;;;;;;5075113;28;20024;-89
2021/10/08 14:20:19;;;;;;;19.17;8.35;;;;;;;;;;5057303;28;20491;-90
2021/10/08 14:22:45;;;;;;;18.30;7.60;;;;;;;;;;5056402;28;20016;-89
2021/10/08 14:25:11;;;;;;;20.23;8.30;;;;;;;;;;5057078;28;20020;-89
2021/10/08 14:27:37;;;;;;;18.45;8.55;;;;;;;;;;5057504;28;20016;-89
2021/10/08 14:30:04;;;;;;;21.25;8.45;;;;;;;;;;5074986;28;20024;-89